• Join FlightAware (Why Join?)
  • Login
  • US Flag 
06:42PM EDT


 

Airport Tracker/Info


-or-


 

Live Flight TrackerFlight Track Log ✈ UAL4476 ✈ 07-Apr-2013 ✈ KIAH - KOMA

Flight Track Log - Related Links

Times and Time Zones

All times are in EDT time to prevent confusion due to time zone crossing. See the UAL4476 flight status page for this flight to view local times or setup timezone preferences in your user account.

Time Position Orientation Groundspeed Altitude Reporting Facility
EDT Latitude Longitude Course Direction KTS MPH feet Rate Location/Type
10:29PM 29.9933 -95.3686 334° Northwest 174 200 800  Level Houston Center
10:29PM 30.0061 -95.3936 301° West 199 229 1,500 1,320 Climbing Houston Center
10:30PM 30.0767 -95.4069 351° North 284 327 2,900 1,740 Climbing Houston Center
10:31PM 30.1517 -95.4219 350° North 289 333 5,100 2,040 Climbing Houston Center
10:32PM 30.2796 -95.5060 332° Northwest  Level FlightAware Approximate
10:33PM 30.3777 -95.5654 334° Northwest  Level FlightAware Approximate
10:33PM 30.2350 -95.4714 333° Northwest 283 326 7,500  Level Houston Center
10:34PM 30.4775 -95.6208 334° Northwest  Level FlightAware Approximate
10:34PM 30.3067 -95.5139 333° Northwest 289 333 9,400  Level Houston Center
10:35PM 30.3797 -95.5583 332° Northwest 294 338 10,800 900 Climbing Houston Center
10:36PM 30.4628 -95.6067 333° Northwest 322 371 11,300 900 Climbing Houston Center
10:37PM 30.5519 -95.6586 333° Northwest 353 406 12,700 1,380 Climbing Houston Center
10:38PM 30.6408 -95.7061 335° Northwest 353 406 14,200 1,440 Climbing Houston Center
10:39PM 30.7481 -95.7600 337° Northwest 346 398 15,700 1,200 Climbing Houston Center
10:40PM 30.8506 -95.7761 352° North 369 425 16,700 960 Climbing Houston Center
10:41PM 30.9528 -95.7925 352° North 369 425 17,700 960 Climbing Houston Center
10:42PM 31.0600 -95.8108 352° North 382 440 18,700 1,020 Climbing Houston Center
10:43PM 31.1617 -95.8258 353° North 386 444 19,900 1,200 Climbing Fort Worth Center
10:45PM 31.3817 -95.8633 352° North 386 444 22,500 1,200 Climbing Houston Center
10:46PM 31.4817 -95.8811 351° North 387 445 23,600 1,140 Climbing Fort Worth Center
10:47PM 31.5842 -95.8964 353° North 387 445 24,800 1,200 Climbing Fort Worth Center
10:48PM 31.6992 -95.9214 350° North 387 445 26,100 1,140 Climbing Fort Worth Center
10:49PM 31.7831 -95.9322 354° North 377 434 27,100 1,140 Climbing Fort Worth Center
10:50PM 31.8981 -95.9525 351° North 372 428 28,400 1,140 Climbing Fort Worth Center
10:51PM 32.0067 -95.9681 353° North 361 415 29,500 1,020 Climbing Fort Worth Center
10:52PM 32.1092 -95.9858 352° North 361 415 30,500 960 Climbing Fort Worth Center
10:53PM 32.2097 -96.0039 351° North 371 427 31,500 1,020 Climbing Fort Worth Center
10:54PM 32.3164 -96.0219 352° North 371 427 32,600 1,020 Climbing Fort Worth Center
10:55PM 32.4208 -96.0303 356° North 371 427 33,600 960 Climbing Fort Worth Center
10:56PM 32.5253 -96.0311 360° North 371 427 34,600 660 Climbing Fort Worth Center
10:57PM 32.6192 -96.0347 358° North 371 427 35,000 180 Climbing Fort Worth Center
10:58PM 32.7297 -96.0353 360° North 376 433 35,000  Level Fort Worth Center
10:59PM 32.8447 -96.0386 359° North 394 453 35,000  Level Fort Worth Center
11:00PM 32.9617 -96.0417 359° North 410 472 35,000  Level Fort Worth Center
11:01PM 33.0786 -96.0450 359° North 416 479 35,000  Level Fort Worth Center
11:02PM 33.1956 -96.0456 360° North 421 484 35,000  Level Fort Worth Center
11:03PM 33.3103 -96.0464 360° North 416 479 35,000  Level Fort Worth Center
11:04PM 33.4272 -96.0494 359° North 416 479 35,000  Level Fort Worth Center
11:05PM 33.5544 -96.0525 359° North 421 484 35,000  Level Fort Worth Center
11:06PM 33.6778 -96.0556 359° North 421 484 35,000  Level Fort Worth Center
11:07PM 33.7967 -96.0586 359° North 427 491 35,000  Level Fort Worth Center
11:08PM 33.9114 -96.0619 359° North 414 476 35,000  Level Fort Worth Center
11:09PM 34.0283 -96.0653 359° North 419 482 35,000  Level Fort Worth Center
11:10PM 34.1433 -96.0708 358° North 410 472 35,000  Level Fort Worth Center
11:11PM 34.2600 -96.0717 360° North 410 472 35,000  Level Fort Worth Center
11:12PM 34.3750 -96.0750 359° North 410 472 35,000  Level Fort Worth Center
11:13PM 34.4939 -96.0756 360° North 410 472 35,000  Level Fort Worth Center
11:14PM 34.6067 -96.0789 359° North 410 472 35,000  Level Fort Worth Center
11:15PM 34.7256 -96.0794 360° North 410 472 35,000  Level Fort Worth Center
11:16PM 34.8403 -96.0828 359° North 415 478 35,000  Level Fort Worth Center
11:17PM 34.9569 -96.0861 359° North 415 478 35,000  Level Fort Worth Center
11:18PM 35.0739 -96.0867 360° North 415 478 35,000  Level Fort Worth Center
11:19PM 35.1886 -96.0900 359° North 421 484 35,000  Level Fort Worth Center
11:20PM 35.3056 -96.0908 360° North 416 479 35,000  Level Fort Worth Center
11:21PM 35.4222 -96.0942 359° North 416 479 35,000  Level Fort Worth Center
11:23PM 35.6508 -96.0972 359° North 414 476 35,000  Level Kansas City Center
11:24PM 35.7667 -96.0997 359° North 416 479 35,000  Level Kansas City Center
11:25PM 35.8800 -96.1028 359° North 415 478 35,000  Level Kansas City Center
11:26PM 35.9978 -96.1064 359° North 418 481 35,000  Level Kansas City Center
11:27PM 36.1142 -96.1097 359° North 417 480 35,000  Level Kansas City Center
11:28PM 36.2314 -96.1119 359° North 417 480 35,000  Level Kansas City Center
11:29PM 36.3486 -96.1150 359° North 417 480 35,000  Level Kansas City Center
11:30PM 36.4592 -96.1175 359° North 403 464 35,000  Level Kansas City Center
11:31PM 36.5661 -96.1197 359° North 387 445 35,000  Level Kansas City Center
11:32PM 36.6722 -96.1222 359° North 381 438 35,000  Level Kansas City Center
11:33PM 36.7803 -96.1239 359° North 383 441 35,000  Level Kansas City Center
11:34PM 36.8894 -96.1272 359° North 388 447 35,000  Level Kansas City Center
11:35PM 37.0003 -96.1292 359° North 392 451 35,000  Level Kansas City Center
11:36PM 37.1142 -96.1328 359° North 401 461 35,000  Level Kansas City Center
11:37PM 37.2319 -96.1364 359° North 414 476 35,000  Level Kansas City Center
11:38PM 37.3497 -96.1503 355° North 424 488 35,000  Level Kansas City Center
11:39PM 37.4619 -96.1778 349° North 416 479 35,000  Level Kansas City Center
11:40PM 37.5731 -96.2042 349° North 407 468 35,000  Level Kansas City Center
11:41PM 37.6914 -96.2339 349° North 415 478 35,000  Level Kansas City Center
11:42PM 37.8050 -96.2622 349° North 417 480 35,000  Level Kansas City Center
11:43PM 37.9197 -96.2903 349° North 420 483 35,000  Level Kansas City Center
11:44PM 38.0336 -96.3189 349° North 418 481 35,000  Level Kansas City Center
11:45PM 38.1506 -96.3394 352° North 424 488 35,000  Level Kansas City Center
11:46PM 38.2731 -96.3347 North 431 496 35,000  Level Kansas City Center
11:47PM 38.4056 -96.3264 North 426 490 35,000  Level Kansas City Center
11:48PM 38.5194 -96.3161 North 424 488 35,000  Level Kansas City Center
11:49PM 38.6328 -96.2989 North 427 491 35,000  Level Kansas City Center
11:50PM 38.7675 -96.2792 North 435 501 35,000  Level Kansas City Center
11:51PM 38.8869 -96.2603 North 442 509 35,000  Level Kansas City Center
11:52PM 39.0056 -96.2444 North 446 513 35,000  Level Kansas City Center
11:53PM 39.1394 -96.2242 North 434 499 35,000  Level Kansas City Center
11:54PM 39.2553 -96.2067 North 436 502 35,000 -300 Level Kansas City Center
11:55PM 39.3811 -96.1875 North 448 516 34,500 -1,440 Descending Kansas City Center
11:56PM 39.5044 -96.1694 North 448 516 32,200 -2,580 Descending Kansas City Center
11:57PM 39.6292 -96.1508 North 436 502 29,400 -2,700 Descending Kansas City Center
11:58PM 39.7508 -96.1333 North 456 525 26,800 -2,340 Descending Kansas City Center
11:59PM 39.8761 -96.1133 North 470 541 24,800 -1,260 Descending Kansas City Center
12:00AM 40.0325 -96.0889 North 447 514 24,000 -420 Descending Minneapolis Center
12:01AM 40.1483 -96.0733 North 427 491 23,900 -1,020 Descending Minneapolis Center
12:03AM 40.2611 -96.0553 North 415 478 22,000 -2,040 Descending Minneapolis Center
12:03AM 40.3433 -96.0253 16° North 392 451 20,400 -1,980 Descending Minneapolis Center
12:04AM 40.3700 -96.0383 340° North 400 460 20,000 -2,100 Descending Minneapolis Center
12:04AM 40.4386 -96.0119 16° North 402 463 18,700 -2,220 Descending Minneapolis Center
12:05AM 40.4825 -96.0222 350° North 403 464 17,800 -2,220 Descending Minneapolis Center
12:05AM 40.5508 -95.9992 14° North 409 471 16,500 -2,340 Descending Minneapolis Center
12:06AM 40.5933 -96.0119 347° North 406 467 15,500 -2,580 Descending Minneapolis Center
12:06AM 40.6581 -96.0064 North 377 434 13,900 -2,580 Descending Minneapolis Center
12:07AM 40.6981 -96.0167 349° North 384 442 12,900 -2,100 Descending Minneapolis Center
12:07AM 40.7589 -96.0142 North 361 415 11,800 -1,620 Descending Minneapolis Center
12:08AM 40.7956 -96.0244 348° North 361 415 11,300 -1,440 Descending Minneapolis Center
12:08AM 40.8497 -96.0258 359° North 294 338 10,400 -1,500 Descending Minneapolis Center
12:09AM 40.8769 -96.0344 347° North 312 359 9,800 -1,800 Descending Minneapolis Center
12:09AM 40.9258 -96.0392 356° North 282 325 8,600 -1,800 Descending Minneapolis Center
12:10AM 40.9533 -96.0467 348° North 284 327 8,000 -1,920 Descending Minneapolis Center
12:10AM 40.9939 -96.0536 353° North 276 318 6,900 -2,040 Descending Minneapolis Center
12:11AM 41.0306 -96.0606 352° North 280 322 6,000 -1,980 Descending Minneapolis Center
12:11AM 41.0719 -96.0642 356° North 280 322 4,900 -1,680 Descending Minneapolis Center
12:12AM 41.1081 -96.0667 357° North 279 321 4,300 -900 Descending Minneapolis Center
12:12AM 41.1517 -96.0689 358° North 251 289 4,000 -240 Descending Minneapolis Center
12:13AM 41.1803 -96.0686 360° North 272 313 4,100  Climbing Minneapolis Center
12:13AM 41.2128 -96.0731 354° North 242 278 4,000 -120 Descending Minneapolis Center
12:14AM 41.2581 -96.0714 North 250 288 4,000 60 Level Minneapolis Center
12:14AM 41.2819 -96.0764 351° North 228 262 4,100 60 Climbing Minneapolis Center
12:15AM 41.3078 -96.0728 North 237 273 4,100 -120 Level Minneapolis Center
12:15AM 41.3364 -96.0786 351° North 226 260 4,000 -720 Descending Minneapolis Center
12:16AM 41.3742 -96.0753 North 231 266 3,400 -840 Descending Minneapolis Center
12:16AM 41.4072 -96.0706 North 234 269 3,100 -300 Descending Minneapolis Center
12:17AM 41.4181 -96.0311 70° East 235 270 3,100  Level Minneapolis Center
12:17AM 41.4044 -95.9986 119° Southeast 210 242 3,100 -420 Level Minneapolis Center
12:18AM 41.3839 -95.9733 137° Southeast 213 245 2,700 -900 Descending Minneapolis Center
12:18AM 41.3622 -95.9589 153° Southeast 172 198 2,200 -900 Descending Minneapolis Center
12:19AM 41.3461 -95.9367 134° Southeast 187 215 1,800 -720 Descending Minneapolis Center
12:19AM 41.3308 -95.9292 160° South 128 147 1,500 -720 Descending Minneapolis Center
12:20AM 41.3147 -95.9069 134° Southeast 159 183 1,100 -720 Descending Minneapolis Center